sensor_id;sensor_type;location;lat;lon;timestamp;P1;durP1;ratioP1;P2;durP2;ratioP2
16957;SDS011;8595;52.542;11.974;2022-12-29T00:01:57;3.47;;;3.00;;
16957;SDS011;8595;52.542;11.974;2022-12-29T00:04:24;3.67;;;2.60;;
16957;SDS011;8595;52.542;11.974;2022-12-29T00:06:52;3.60;;;2.97;;
16957;SDS011;8595;52.542;11.974;2022-12-29T00:09:19;3.73;;;2.90;;
16957;SDS011;8595;52.542;11.974;2022-12-29T00:11:46;3.30;;;2.80;;
16957;SDS011;8595;52.542;11.974;2022-12-29T00:14:15;4.83;;;2.87;;
16957;SDS011;8595;52.542;11.974;2022-12-29T00:16:59;4.73;;;3.03;;
16957;SDS011;8595;52.542;11.974;2022-12-29T00:19:26;4.07;;;3.07;;
16957;SDS011;8595;52.542;11.974;2022-12-29T00:22:12;6.07;;;2.90;;
16957;SDS011;8595;52.542;11.974;2022-12-29T00:24:57;2.87;;;2.67;;
16957;SDS011;8595;52.542;11.974;2022-12-29T00:27:42;2.77;;;2.57;;
16957;SDS011;8595;52.542;11.974;2022-12-29T00:30:26;3.10;;;2.70;;
16957;SDS011;8595;52.542;11.974;2022-12-29T00:33:11;4.20;;;3.10;;
16957;SDS011;8595;52.542;11.974;2022-12-29T00:35:57;3.30;;;2.83;;
16957;SDS011;8595;52.542;11.974;2022-12-29T00:38:29;5.50;;;3.20;;
16957;SDS011;8595;52.542;11.974;2022-12-29T00:41:16;4.17;;;2.87;;
16957;SDS011;8595;52.542;11.974;2022-12-29T00:44:14;3.57;;;3.00;;
16957;SDS011;8595;52.542;11.974;2022-12-29T00:46:41;3.80;;;3.10;;
16957;SDS011;8595;52.542;11.974;2022-12-29T00:49:10;3.80;;;2.80;;
16957;SDS011;8595;52.542;11.974;2022-12-29T00:51:57;5.97;;;3.03;;
16957;SDS011;8595;52.542;11.974;2022-12-29T00:54:27;4.53;;;3.20;;
16957;SDS011;8595;52.542;11.974;2022-12-29T00:56:54;4.53;;;3.10;;
16957;SDS011;8595;52.542;11.974;2022-12-29T00:59:21;4.90;;;3.07;;
16957;SDS011;8595;52.542;11.974;2022-12-29T01:01:49;3.33;;;2.70;;
16957;SDS011;8595;52.542;11.974;2022-12-29T01:04:17;5.77;;;3.10;;
16957;SDS011;8595;52.542;11.974;2022-12-29T01:06:44;3.97;;;2.93;;
16957;SDS011;8595;52.542;11.974;2022-12-29T01:09:11;6.43;;;2.93;;
16957;SDS011;8595;52.542;11.974;2022-12-29T01:11:56;3.90;;;2.97;;
16957;SDS011;8595;52.542;11.974;2022-12-29T01:14:24;4.27;;;2.80;;
16957;SDS011;8595;52.542;11.974;2022-12-29T01:16:51;4.07;;;2.90;;
16957;SDS011;8595;52.542;11.974;2022-12-29T01:19:19;2.97;;;2.63;;
16957;SDS011;8595;52.542;11.974;2022-12-29T01:21:46;3.60;;;3.00;;
16957;SDS011;8595;52.542;11.974;2022-12-29T01:24:13;6.03;;;3.20;;
16957;SDS011;8595;52.542;11.974;2022-12-29T01:26:39;5.00;;;2.80;;
16957;SDS011;8595;52.542;11.974;2022-12-29T01:29:07;7.00;;;2.80;;
16957;SDS011;8595;52.542;11.974;2022-12-29T01:31:34;3.73;;;2.70;;
16957;SDS011;8595;52.542;11.974;2022-12-29T01:34:01;4.30;;;3.10;;
16957;SDS011;8595;52.542;11.974;2022-12-29T01:36:28;4.07;;;2.97;;
16957;SDS011;8595;52.542;11.974;2022-12-29T01:38:55;3.30;;;2.80;;
16957;SDS011;8595;52.542;11.974;2022-12-29T01:41:22;4.70;;;2.90;;
16957;SDS011;8595;52.542;11.974;2022-12-29T01:43:50;3.30;;;2.70;;
16957;SDS011;8595;52.542;11.974;2022-12-29T01:46:21;7.33;;;3.40;;
16957;SDS011;8595;52.542;11.974;2022-12-29T01:48:51;4.90;;;2.80;;
16957;SDS011;8595;52.542;11.974;2022-12-29T01:51:22;2.70;;;2.50;;
16957;SDS011;8595;52.542;11.974;2022-12-29T01:53:51;4.67;;;3.13;;
16957;SDS011;8595;52.542;11.974;2022-12-29T01:56:20;3.43;;;2.97;;
16957;SDS011;8595;52.542;11.974;2022-12-29T01:58:48;4.60;;;2.67;;
16957;SDS011;8595;52.542;11.974;2022-12-29T02:01:22;3.13;;;2.80;;
16957;SDS011;8595;52.542;11.974;2022-12-29T02:03:48;6.77;;;2.70;;
16957;SDS011;8595;52.542;11.974;2022-12-29T02:06:17;3.17;;;2.87;;
16957;SDS011;8595;52.542;11.974;2022-12-29T02:08:47;4.63;;;2.73;;
16957;SDS011;8595;52.542;11.974;2022-12-29T02:11:16;4.23;;;3.20;;
16957;SDS011;8595;52.542;11.974;2022-12-29T02:13:43;3.23;;;2.90;;
16957;SDS011;8595;52.542;11.974;2022-12-29T02:16:14;4.33;;;2.83;;
16957;SDS011;8595;52.542;11.974;2022-12-29T02:18:53;2.97;;;2.47;;
16957;SDS011;8595;52.542;11.974;2022-12-29T02:21:37;4.23;;;3.13;;
16957;SDS011;8595;52.542;11.974;2022-12-29T02:27:34;5.27;;;2.80;;
16957;SDS011;8595;52.542;11.974;2022-12-29T02:30:34;3.60;;;2.40;;
16957;SDS011;8595;52.542;11.974;2022-12-29T02:33:15;3.00;;;2.67;;
16957;SDS011;8595;52.542;11.974;2022-12-29T02:35:50;3.67;;;2.80;;
16957;SDS011;8595;52.542;11.974;2022-12-29T02:38:27;3.53;;;3.00;;
16957;SDS011;8595;52.542;11.974;2022-12-29T02:41:05;4.10;;;2.83;;
16957;SDS011;8595;52.542;11.974;2022-12-29T02:43:39;3.53;;;2.63;;
16957;SDS011;8595;52.542;11.974;2022-12-29T02:46:17;3.07;;;2.77;;
16957;SDS011;8595;52.542;11.974;2022-12-29T02:48:50;3.40;;;3.10;;
16957;SDS011;8595;52.542;11.974;2022-12-29T02:51:26;4.83;;;3.30;;
16957;SDS011;8595;52.542;11.974;2022-12-29T02:53:55;3.33;;;3.03;;
16957;SDS011;8595;52.542;11.974;2022-12-29T02:56:41;3.13;;;2.70;;
16957;SDS011;8595;52.542;11.974;2022-12-29T02:59:08;3.23;;;2.93;;
16957;SDS011;8595;52.542;11.974;2022-12-29T03:01:40;3.03;;;2.73;;
16957;SDS011;8595;52.542;11.974;2022-12-29T03:04:36;3.73;;;2.93;;
16957;SDS011;8595;52.542;11.974;2022-12-29T03:07:12;3.10;;;2.67;;
16957;SDS011;8595;52.542;11.974;2022-12-29T03:09:47;5.17;;;3.13;;
16957;SDS011;8595;52.542;11.974;2022-12-29T03:12:24;4.60;;;2.80;;
16957;SDS011;8595;52.542;11.974;2022-12-29T03:15:17;3.87;;;2.83;;
16957;SDS011;8595;52.542;11.974;2022-12-29T03:18:09;5.30;;;3.00;;
16957;SDS011;8595;52.542;11.974;2022-12-29T03:20:41;15.90;;;4.00;;
16957;SDS011;8595;52.542;11.974;2022-12-29T03:23:12;3.87;;;2.90;;
16957;SDS011;8595;52.542;11.974;2022-12-29T03:25:40;2.73;;;2.53;;
16957;SDS011;8595;52.542;11.974;2022-12-29T03:28:13;4.00;;;3.20;;
16957;SDS011;8595;52.542;11.974;2022-12-29T03:30:45;4.07;;;3.13;;
16957;SDS011;8595;52.542;11.974;2022-12-29T03:33:14;5.40;;;3.40;;
16957;SDS011;8595;52.542;11.974;2022-12-29T03:35:44;3.17;;;2.87;;
16957;SDS011;8595;52.542;11.974;2022-12-29T03:38:15;3.23;;;2.93;;
16957;SDS011;8595;52.542;11.974;2022-12-29T03:40:45;3.93;;;3.30;;
16957;SDS011;8595;52.542;11.974;2022-12-29T03:43:15;3.43;;;2.50;;
16957;SDS011;8595;52.542;11.974;2022-12-29T03:45:43;3.70;;;2.90;;
16957;SDS011;8595;52.542;11.974;2022-12-29T03:48:09;3.87;;;3.10;;
16957;SDS011;8595;52.542;11.974;2022-12-29T03:50:37;4.27;;;3.10;;
16957;SDS011;8595;52.542;11.974;2022-12-29T03:53:04;4.67;;;2.50;;
16957;SDS011;8595;52.542;11.974;2022-12-29T03:55:31;3.07;;;2.77;;
16957;SDS011;8595;52.542;11.974;2022-12-29T03:57:57;4.30;;;3.30;;
16957;SDS011;8595;52.542;11.974;2022-12-29T04:00:24;4.47;;;3.30;;
16957;SDS011;8595;52.542;11.974;2022-12-29T04:02:51;3.40;;;3.03;;
16957;SDS011;8595;52.542;11.974;2022-12-29T04:05:17;3.97;;;3.00;;
16957;SDS011;8595;52.542;11.974;2022-12-29T04:07:45;5.63;;;3.17;;
16957;SDS011;8595;52.542;11.974;2022-12-29T04:10:12;4.47;;;3.10;;
16957;SDS011;8595;52.542;11.974;2022-12-29T04:12:39;3.83;;;2.67;;
16957;SDS011;8595;52.542;11.974;2022-12-29T04:15:07;6.17;;;3.27;;
16957;SDS011;8595;52.542;11.974;2022-12-29T04:17:34;4.90;;;3.30;;
16957;SDS011;8595;52.542;11.974;2022-12-29T04:20:01;4.43;;;3.40;;
16957;SDS011;8595;52.542;11.974;2022-12-29T04:22:41;3.60;;;3.10;;
16957;SDS011;8595;52.542;11.974;2022-12-29T04:25:09;3.30;;;3.00;;
16957;SDS011;8595;52.542;11.974;2022-12-29T04:27:36;4.10;;;2.70;;
16957;SDS011;8595;52.542;11.974;2022-12-29T04:30:03;3.83;;;3.50;;
16957;SDS011;8595;52.542;11.974;2022-12-29T04:32:31;3.93;;;3.03;;
16957;SDS011;8595;52.542;11.974;2022-12-29T04:34:58;3.37;;;3.07;;
16957;SDS011;8595;52.542;11.974;2022-12-29T04:37:24;4.10;;;3.00;;
16957;SDS011;8595;52.542;11.974;2022-12-29T04:39:51;6.37;;;3.17;;
16957;SDS011;8595;52.542;11.974;2022-12-29T04:42:19;4.80;;;3.60;;
16957;SDS011;8595;52.542;11.974;2022-12-29T04:44:46;5.20;;;3.23;;
16957;SDS011;8595;52.542;11.974;2022-12-29T04:47:12;5.67;;;3.03;;
16957;SDS011;8595;52.542;11.974;2022-12-29T04:49:39;5.23;;;3.10;;
16957;SDS011;8595;52.542;11.974;2022-12-29T04:52:06;5.13;;;2.67;;
16957;SDS011;8595;52.542;11.974;2022-12-29T04:54:33;5.77;;;3.33;;
16957;SDS011;8595;52.542;11.974;2022-12-29T04:57:00;7.43;;;3.77;;
16957;SDS011;8595;52.542;11.974;2022-12-29T04:59:28;3.65;;;3.08;;
16957;SDS011;8595;52.542;11.974;2022-12-29T05:01:54;4.40;;;3.10;;
16957;SDS011;8595;52.542;11.974;2022-12-29T05:04:21;4.73;;;3.00;;
16957;SDS011;8595;52.542;11.974;2022-12-29T05:06:47;3.07;;;2.77;;
16957;SDS011;8595;52.542;11.974;2022-12-29T05:09:14;3.03;;;2.80;;
16957;SDS011;8595;52.542;11.974;2022-12-29T05:11:41;2.72;;;2.53;;
16957;SDS011;8595;52.542;11.974;2022-12-29T05:14:07;7.00;;;3.40;;
16957;SDS011;8595;52.542;11.974;2022-12-29T05:16:36;3.47;;;3.17;;
16957;SDS011;8595;52.542;11.974;2022-12-29T05:19:02;4.97;;;3.27;;
16957;SDS011;8595;52.542;11.974;2022-12-29T05:21:29;3.90;;;2.90;;
16957;SDS011;8595;52.542;11.974;2022-12-29T05:23:56;3.92;;;2.90;;
16957;SDS011;8595;52.542;11.974;2022-12-29T05:26:22;3.97;;;3.20;;
16957;SDS011;8595;52.542;11.974;2022-12-29T05:28:49;4.40;;;2.70;;
16957;SDS011;8595;52.542;11.974;2022-12-29T05:31:16;3.50;;;2.95;;
16957;SDS011;8595;52.542;11.974;2022-12-29T05:33:44;3.90;;;2.70;;
16957;SDS011;8595;52.542;11.974;2022-12-29T05:36:10;3.57;;;2.97;;
16957;SDS011;8595;52.542;11.974;2022-12-29T05:38:37;3.20;;;2.87;;
16957;SDS011;8595;52.542;11.974;2022-12-29T05:41:04;3.85;;;2.72;;
16957;SDS011;8595;52.542;11.974;2022-12-29T05:43:31;3.50;;;2.70;;
16957;SDS011;8595;52.542;11.974;2022-12-29T05:45:57;3.45;;;2.70;;
16957;SDS011;8595;52.542;11.974;2022-12-29T05:48:25;3.00;;;2.50;;
16957;SDS011;8595;52.542;11.974;2022-12-29T05:50:54;5.37;;;3.10;;
16957;SDS011;8595;52.542;11.974;2022-12-29T05:53:20;4.45;;;2.83;;
16957;SDS011;8595;52.542;11.974;2022-12-29T05:55:47;3.30;;;2.50;;
16957;SDS011;8595;52.542;11.974;2022-12-29T05:58:14;3.50;;;2.77;;
16957;SDS011;8595;52.542;11.974;2022-12-29T06:00:41;4.27;;;3.03;;
16957;SDS011;8595;52.542;11.974;2022-12-29T06:03:08;3.43;;;2.70;;
16957;SDS011;8595;52.542;11.974;2022-12-29T06:05:35;3.83;;;3.03;;
16957;SDS011;8595;52.542;11.974;2022-12-29T06:08:03;4.60;;;2.83;;
16957;SDS011;8595;52.542;11.974;2022-12-29T06:10:30;4.18;;;2.85;;
16957;SDS011;8595;52.542;11.974;2022-12-29T06:12:57;3.90;;;2.90;;
16957;SDS011;8595;52.542;11.974;2022-12-29T06:15:23;5.53;;;3.20;;
16957;SDS011;8595;52.542;11.974;2022-12-29T06:17:50;4.27;;;2.97;;
16957;SDS011;8595;52.542;11.974;2022-12-29T06:20:17;3.10;;;2.83;;
16957;SDS011;8595;52.542;11.974;2022-12-29T06:22:43;4.70;;;3.00;;
16957;SDS011;8595;52.542;11.974;2022-12-29T06:25:12;2.80;;;2.53;;
16957;SDS011;8595;52.542;11.974;2022-12-29T06:27:39;6.22;;;2.95;;
16957;SDS011;8595;52.542;11.974;2022-12-29T06:30:07;2.50;;;2.30;;
16957;SDS011;8595;52.542;11.974;2022-12-29T06:32:34;4.10;;;3.00;;
16957;SDS011;8595;52.542;11.974;2022-12-29T06:35:01;4.13;;;2.40;;
16957;SDS011;8595;52.542;11.974;2022-12-29T06:37:28;5.43;;;2.20;;
16957;SDS011;8595;52.542;11.974;2022-12-29T06:39:55;3.67;;;2.70;;
16957;SDS011;8595;52.542;11.974;2022-12-29T06:42:23;3.50;;;3.20;;
16957;SDS011;8595;52.542;11.974;2022-12-29T06:44:50;2.88;;;2.60;;
16957;SDS011;8595;52.542;11.974;2022-12-29T06:47:17;3.00;;;2.70;;
16957;SDS011;8595;52.542;11.974;2022-12-29T06:49:44;3.05;;;2.13;;
16957;SDS011;8595;52.542;11.974;2022-12-29T06:52:11;2.47;;;2.28;;
16957;SDS011;8595;52.542;11.974;2022-12-29T06:54:38;3.10;;;2.53;;
16957;SDS011;8595;52.542;11.974;2022-12-29T06:57:05;4.63;;;2.90;;
16957;SDS011;8595;52.542;11.974;2022-12-29T06:59:32;2.83;;;2.40;;
16957;SDS011;8595;52.542;11.974;2022-12-29T07:01:59;5.17;;;2.70;;
16957;SDS011;8595;52.542;11.974;2022-12-29T07:04:26;2.77;;;2.50;;
16957;SDS011;8595;52.542;11.974;2022-12-29T07:06:53;2.87;;;2.33;;
16957;SDS011;8595;52.542;11.974;2022-12-29T07:09:21;4.00;;;2.57;;
16957;SDS011;8595;52.542;11.974;2022-12-29T07:11:47;4.03;;;2.77;;
16957;SDS011;8595;52.542;11.974;2022-12-29T07:14:14;3.33;;;2.40;;
16957;SDS011;8595;52.542;11.974;2022-12-29T07:16:42;2.45;;;2.25;;
16957;SDS011;8595;52.542;11.974;2022-12-29T07:19:09;6.80;;;2.40;;
16957;SDS011;8595;52.542;11.974;2022-12-29T07:21:35;4.10;;;2.53;;
16957;SDS011;8595;52.542;11.974;2022-12-29T07:24:02;2.70;;;2.50;;
16957;SDS011;8595;52.542;11.974;2022-12-29T07:26:29;6.53;;;2.75;;
16957;SDS011;8595;52.542;11.974;2022-12-29T07:28:55;2.97;;;2.67;;
16957;SDS011;8595;52.542;11.974;2022-12-29T07:31:22;3.60;;;2.30;;
16957;SDS011;8595;52.542;11.974;2022-12-29T07:33:50;3.30;;;3.00;;
16957;SDS011;8595;52.542;11.974;2022-12-29T07:36:17;2.90;;;2.60;;
16957;SDS011;8595;52.542;11.974;2022-12-29T07:38:44;2.87;;;2.27;;
16957;SDS011;8595;52.542;11.974;2022-12-29T07:41:10;3.05;;;2.70;;
16957;SDS011;8595;52.542;11.974;2022-12-29T07:43:37;2.60;;;2.40;;
16957;SDS011;8595;52.542;11.974;2022-12-29T07:46:04;3.17;;;2.47;;
16957;SDS011;8595;52.542;11.974;2022-12-29T07:48:30;3.10;;;2.50;;
16957;SDS011;8595;52.542;11.974;2022-12-29T07:50:59;3.33;;;2.40;;
16957;SDS011;8595;52.542;11.974;2022-12-29T07:53:26;4.27;;;2.30;;
16957;SDS011;8595;52.542;11.974;2022-12-29T07:55:53;5.03;;;2.22;;
16957;SDS011;8595;52.542;11.974;2022-12-29T07:58:20;2.40;;;2.20;;
16957;SDS011;8595;52.542;11.974;2022-12-29T08:00:46;3.13;;;2.42;;
16957;SDS011;8595;52.542;11.974;2022-12-29T08:03:13;2.10;;;1.90;;
16957;SDS011;8595;52.542;11.974;2022-12-29T08:05:39;3.53;;;2.10;;
16957;SDS011;8595;52.542;11.974;2022-12-29T08:08:07;2.67;;;2.30;;
16957;SDS011;8595;52.542;11.974;2022-12-29T08:10:34;3.33;;;2.38;;
16957;SDS011;8595;52.542;11.974;2022-12-29T08:13:01;2.50;;;2.30;;
16957;SDS011;8595;52.542;11.974;2022-12-29T08:15:27;2.42;;;2.22;;
16957;SDS011;8595;52.542;11.974;2022-12-29T08:17:54;5.35;;;2.35;;
16957;SDS011;8595;52.542;11.974;2022-12-29T08:20:21;2.13;;;2.03;;
16957;SDS011;8595;52.542;11.974;2022-12-29T08:22:47;3.45;;;2.20;;
16957;SDS011;8595;52.542;11.974;2022-12-29T08:25:15;1.93;;;1.83;;
16957;SDS011;8595;52.542;11.974;2022-12-29T08:27:42;3.30;;;2.08;;
16957;SDS011;8595;52.542;11.974;2022-12-29T08:30:09;2.10;;;2.00;;
16957;SDS011;8595;52.542;11.974;2022-12-29T08:32:37;2.83;;;2.00;;
16957;SDS011;8595;52.542;11.974;2022-12-29T08:35:04;2.40;;;2.20;;
16957;SDS011;8595;52.542;11.974;2022-12-29T08:37:31;2.20;;;2.10;;
16957;SDS011;8595;52.542;11.974;2022-12-29T08:39:58;2.40;;;2.20;;
16957;SDS011;8595;52.542;11.974;2022-12-29T08:42:29;2.72;;;2.30;;
16957;SDS011;8595;52.542;11.974;2022-12-29T08:44:56;3.47;;;2.35;;
16957;SDS011;8595;52.542;11.974;2022-12-29T08:47:23;4.03;;;2.10;;
16957;SDS011;8595;52.542;11.974;2022-12-29T08:49:50;5.15;;;2.00;;
16957;SDS011;8595;52.542;11.974;2022-12-29T08:52:17;3.30;;;1.90;;
16957;SDS011;8595;52.542;11.974;2022-12-29T08:54:44;2.28;;;1.73;;
16957;SDS011;8595;52.542;11.974;2022-12-29T08:57:11;3.17;;;2.50;;
16957;SDS011;8595;52.542;11.974;2022-12-29T08:59:39;4.25;;;1.90;;
16957;SDS011;8595;52.542;11.974;2022-12-29T09:02:05;2.88;;;1.88;;
16957;SDS011;8595;52.542;11.974;2022-12-29T09:04:35;2.45;;;2.15;;
16957;SDS011;8595;52.542;11.974;2022-12-29T09:07:02;2.97;;;2.03;;
16957;SDS011;8595;52.542;11.974;2022-12-29T09:09:30;2.22;;;1.90;;
16957;SDS011;8595;52.542;11.974;2022-12-29T09:11:57;2.67;;;2.00;;
16957;SDS011;8595;52.542;11.974;2022-12-29T09:14:23;2.15;;;1.95;;
16957;SDS011;8595;52.542;11.974;2022-12-29T09:16:52;3.90;;;2.20;;
16957;SDS011;8595;52.542;11.974;2022-12-29T09:19:38;3.40;;;1.95;;
16957;SDS011;8595;52.542;11.974;2022-12-29T09:22:04;2.00;;;1.80;;
16957;SDS011;8595;52.542;11.974;2022-12-29T09:24:31;1.77;;;1.67;;
16957;SDS011;8595;52.542;11.974;2022-12-29T09:26:58;3.10;;;2.10;;
16957;SDS011;8595;52.542;11.974;2022-12-29T09:29:24;2.53;;;2.00;;
16957;SDS011;8595;52.542;11.974;2022-12-29T09:31:52;2.20;;;2.00;;
16957;SDS011;8595;52.542;11.974;2022-12-29T09:34:19;2.70;;;2.05;;
16957;SDS011;8595;52.542;11.974;2022-12-29T09:36:46;2.20;;;2.00;;
16957;SDS011;8595;52.542;11.974;2022-12-29T09:39:12;1.90;;;1.80;;
16957;SDS011;8595;52.542;11.974;2022-12-29T09:41:39;2.08;;;1.88;;
16957;SDS011;8595;52.542;11.974;2022-12-29T09:44:14;2.03;;;1.83;;
16957;SDS011;8595;52.542;11.974;2022-12-29T09:46:47;2.72;;;2.10;;
16957;SDS011;8595;52.542;11.974;2022-12-29T09:49:21;2.10;;;1.90;;
16957;SDS011;8595;52.542;11.974;2022-12-29T09:51:57;2.17;;;2.00;;
16957;SDS011;8595;52.542;11.974;2022-12-29T09:54:38;2.60;;;2.40;;
16957;SDS011;8595;52.542;11.974;2022-12-29T09:57:17;2.92;;;2.72;;
16957;SDS011;8595;52.542;11.974;2022-12-29T09:59:50;6.65;;;2.50;;
16957;SDS011;8595;52.542;11.974;2022-12-29T10:02:31;2.75;;;2.55;;
16957;SDS011;8595;52.542;11.974;2022-12-29T10:05:04;2.58;;;2.30;;
16957;SDS011;8595;52.542;11.974;2022-12-29T10:07:44;3.67;;;2.70;;
16957;SDS011;8595;52.542;11.974;2022-12-29T10:10:18;2.40;;;2.20;;
16957;SDS011;8595;52.542;11.974;2022-12-29T10:13:00;2.33;;;1.80;;
16957;SDS011;8595;52.542;11.974;2022-12-29T10:15:36;4.95;;;2.65;;
16957;SDS011;8595;52.542;11.974;2022-12-29T10:18:15;4.57;;;2.50;;
16957;SDS011;8595;52.542;11.974;2022-12-29T10:20:53;3.38;;;2.60;;
16957;SDS011;8595;52.542;11.974;2022-12-29T10:23:25;5.93;;;3.20;;
16957;SDS011;8595;52.542;11.974;2022-12-29T10:25:54;3.72;;;3.22;;
16957;SDS011;8595;52.542;11.974;2022-12-29T10:28:24;5.13;;;3.58;;
16957;SDS011;8595;52.542;11.974;2022-12-29T10:31:00;4.18;;;2.45;;
16957;SDS011;8595;52.542;11.974;2022-12-29T10:33:32;3.63;;;2.63;;
16957;SDS011;8595;52.542;11.974;2022-12-29T10:36:04;2.50;;;2.22;;
16957;SDS011;8595;52.542;11.974;2022-12-29T10:38:40;2.75;;;2.25;;
16957;SDS011;8595;52.542;11.974;2022-12-29T10:41:13;3.42;;;2.10;;
16957;SDS011;8595;52.542;11.974;2022-12-29T10:43:44;3.53;;;1.65;;
16957;SDS011;8595;52.542;11.974;2022-12-29T10:46:13;1.90;;;1.67;;
16957;SDS011;8595;52.542;11.974;2022-12-29T10:48:43;3.55;;;2.13;;
16957;SDS011;8595;52.542;11.974;2022-12-29T10:51:15;2.67;;;2.30;;
16957;SDS011;8595;52.542;11.974;2022-12-29T10:53:47;2.65;;;1.90;;
16957;SDS011;8595;52.542;11.974;2022-12-29T10:56:21;2.38;;;1.67;;
16957;SDS011;8595;52.542;11.974;2022-12-29T10:58:54;5.85;;;1.95;;
16957;SDS011;8595;52.542;11.974;2022-12-29T11:01:22;2.00;;;1.80;;
16957;SDS011;8595;52.542;11.974;2022-12-29T11:03:58;2.70;;;1.65;;
16957;SDS011;8595;52.542;11.974;2022-12-29T11:06:30;2.00;;;1.80;;
16957;SDS011;8595;52.542;11.974;2022-12-29T11:09:00;3.50;;;2.00;;
16957;SDS011;8595;52.542;11.974;2022-12-29T11:11:34;3.35;;;2.10;;
16957;SDS011;8595;52.542;11.974;2022-12-29T11:14:02;3.85;;;2.08;;
16957;SDS011;8595;52.542;11.974;2022-12-29T11:16:37;2.88;;;2.20;;
16957;SDS011;8595;52.542;11.974;2022-12-29T11:19:04;2.97;;;1.90;;
16957;SDS011;8595;52.542;11.974;2022-12-29T11:21:33;3.08;;;1.83;;
16957;SDS011;8595;52.542;11.974;2022-12-29T11:24:08;2.08;;;1.50;;
16957;SDS011;8595;52.542;11.974;2022-12-29T11:26:46;1.63;;;1.50;;
16957;SDS011;8595;52.542;11.974;2022-12-29T11:29:17;3.05;;;2.45;;
16957;SDS011;8595;52.542;11.974;2022-12-29T11:31:48;4.60;;;2.63;;
16957;SDS011;8595;52.542;11.974;2022-12-29T11:34:17;2.78;;;2.20;;
16957;SDS011;8595;52.542;11.974;2022-12-29T11:36:47;2.50;;;2.30;;
16957;SDS011;8595;52.542;11.974;2022-12-29T11:39:26;3.03;;;2.30;;
16957;SDS011;8595;52.542;11.974;2022-12-29T11:41:56;3.97;;;2.47;;
16957;SDS011;8595;52.542;11.974;2022-12-29T11:44:23;3.00;;;2.03;;
16957;SDS011;8595;52.542;11.974;2022-12-29T11:46:51;3.53;;;2.20;;
16957;SDS011;8595;52.542;11.974;2022-12-29T11:49:19;2.85;;;2.42;;
16957;SDS011;8595;52.542;11.974;2022-12-29T11:51:49;2.90;;;2.30;;
16957;SDS011;8595;52.542;11.974;2022-12-29T11:54:21;2.30;;;1.98;;
16957;SDS011;8595;52.542;11.974;2022-12-29T11:56:51;2.65;;;1.55;;
16957;SDS011;8595;52.542;11.974;2022-12-29T12:04:58;3.20;;;1.20;;
16957;SDS011;8595;52.542;11.974;2022-12-29T12:07:33;2.70;;;1.17;;
16957;SDS011;8595;52.542;11.974;2022-12-29T12:10:05;1.20;;;1.10;;
16957;SDS011;8595;52.542;11.974;2022-12-29T12:12:37;1.70;;;1.42;;
16957;SDS011;8595;52.542;11.974;2022-12-29T12:15:08;3.00;;;1.35;;
16957;SDS011;8595;52.542;11.974;2022-12-29T12:17:44;2.05;;;1.23;;
16957;SDS011;8595;52.542;11.974;2022-12-29T12:20:16;2.17;;;1.30;;
16957;SDS011;8595;52.542;11.974;2022-12-29T12:22:50;2.15;;;1.52;;
16957;SDS011;8595;52.542;11.974;2022-12-29T12:25:29;1.98;;;1.35;;
16957;SDS011;8595;52.542;11.974;2022-12-29T12:28:01;1.60;;;1.42;;
16957;SDS011;8595;52.542;11.974;2022-12-29T12:30:37;4.00;;;1.73;;
16957;SDS011;8595;52.542;11.974;2022-12-29T12:33:13;2.58;;;1.70;;
16957;SDS011;8595;52.542;11.974;2022-12-29T12:35:46;2.42;;;1.77;;
16957;SDS011;8595;52.542;11.974;2022-12-29T12:38:23;2.03;;;1.45;;
16957;SDS011;8595;52.542;11.974;2022-12-29T12:40:59;2.53;;;1.30;;
16957;SDS011;8595;52.542;11.974;2022-12-29T12:43:39;2.75;;;1.35;;
16957;SDS011;8595;52.542;11.974;2022-12-29T12:46:21;2.47;;;1.58;;
16957;SDS011;8595;52.542;11.974;2022-12-29T12:49:11;1.80;;;1.52;;
16957;SDS011;8595;52.542;11.974;2022-12-29T12:51:52;3.33;;;1.60;;
16957;SDS011;8595;52.542;11.974;2022-12-29T12:54:36;1.77;;;1.10;;
16957;SDS011;8595;52.542;11.974;2022-12-29T12:57:20;1.50;;;1.30;;
16957;SDS011;8595;52.542;11.974;2022-12-29T12:59:56;2.17;;;1.98;;
16957;SDS011;8595;52.542;11.974;2022-12-29T13:02:30;2.38;;;2.17;;
16957;SDS011;8595;52.542;11.974;2022-12-29T13:07:58;1.85;;;1.20;;
16957;SDS011;8595;52.542;11.974;2022-12-29T13:10:42;2.15;;;1.40;;
16957;SDS011;8595;52.542;11.974;2022-12-29T13:16:05;2.83;;;1.40;;
16957;SDS011;8595;52.542;11.974;2022-12-29T13:18:37;4.88;;;1.65;;
16957;SDS011;8595;52.542;11.974;2022-12-29T13:21:17;3.88;;;3.03;;
16957;SDS011;8595;52.542;11.974;2022-12-29T13:23:54;2.65;;;1.63;;
16957;SDS011;8595;52.542;11.974;2022-12-29T13:26:28;1.95;;;1.70;;
16957;SDS011;8595;52.542;11.974;2022-12-29T13:28:59;2.25;;;1.52;;
16957;SDS011;8595;52.542;11.974;2022-12-29T13:31:33;2.08;;;1.60;;
16957;SDS011;8595;52.542;11.974;2022-12-29T13:34:10;2.20;;;1.70;;
16957;SDS011;8595;52.542;11.974;2022-12-29T13:36:44;2.17;;;1.98;;
16957;SDS011;8595;52.542;11.974;2022-12-29T13:39:15;2.58;;;1.95;;
16957;SDS011;8595;52.542;11.974;2022-12-29T13:41:47;5.65;;;1.85;;
16957;SDS011;8595;52.542;11.974;2022-12-29T13:44:17;2.90;;;1.67;;
16957;SDS011;8595;52.542;11.974;2022-12-29T13:46:49;2.70;;;1.60;;
16957;SDS011;8595;52.542;11.974;2022-12-29T13:49:18;2.33;;;1.77;;
16957;SDS011;8595;52.542;11.974;2022-12-29T13:51:47;4.22;;;2.47;;
16957;SDS011;8595;52.542;11.974;2022-12-29T13:54:18;3.15;;;1.90;;
16957;SDS011;8595;52.542;11.974;2022-12-29T13:57:03;6.50;;;2.50;;
16957;SDS011;8595;52.542;11.974;2022-12-29T13:59:36;5.40;;;2.70;;
16957;SDS011;8595;52.542;11.974;2022-12-29T14:02:11;4.00;;;2.40;;
16957;SDS011;8595;52.542;11.974;2022-12-29T14:04:57;4.93;;;1.52;;
16957;SDS011;8595;52.542;11.974;2022-12-29T14:07:25;2.63;;;1.70;;
16957;SDS011;8595;52.542;11.974;2022-12-29T14:09:53;5.55;;;1.75;;
16957;SDS011;8595;52.542;11.974;2022-12-29T14:12:26;1.90;;;1.50;;
16957;SDS011;8595;52.542;11.974;2022-12-29T14:15:02;7.00;;;2.20;;
16957;SDS011;8595;52.542;11.974;2022-12-29T14:17:31;2.20;;;1.60;;
16957;SDS011;8595;52.542;11.974;2022-12-29T14:19:59;2.50;;;1.58;;
16957;SDS011;8595;52.542;11.974;2022-12-29T14:22:26;3.47;;;1.60;;
16957;SDS011;8595;52.542;11.974;2022-12-29T14:24:53;3.50;;;1.52;;
16957;SDS011;8595;52.542;11.974;2022-12-29T14:33:27;7.00;;;2.50;;
16957;SDS011;8595;52.542;11.974;2022-12-29T14:35:56;3.08;;;2.30;;
16957;SDS011;8595;52.542;11.974;2022-12-29T14:38:31;3.83;;;2.63;;
16957;SDS011;8595;52.542;11.974;2022-12-29T14:43:54;5.88;;;3.80;;
16957;SDS011;8595;52.542;11.974;2022-12-29T14:46:24;9.52;;;4.45;;
16957;SDS011;8595;52.542;11.974;2022-12-29T14:48:54;3.10;;;2.38;;
16957;SDS011;8595;52.542;11.974;2022-12-29T14:51:30;7.10;;;3.08;;
16957;SDS011;8595;52.542;11.974;2022-12-29T14:54:01;2.47;;;1.95;;
16957;SDS011;8595;52.542;11.974;2022-12-29T14:57:07;3.22;;;1.80;;
16957;SDS011;8595;52.542;11.974;2022-12-29T14:59:40;1.98;;;1.40;;
16957;SDS011;8595;52.542;11.974;2022-12-29T15:02:12;3.10;;;1.73;;
16957;SDS011;8595;52.542;11.974;2022-12-29T15:04:41;2.70;;;1.95;;
16957;SDS011;8595;52.542;11.974;2022-12-29T15:07:09;2.60;;;1.83;;
16957;SDS011;8595;52.542;11.974;2022-12-29T15:09:37;2.53;;;1.40;;
16957;SDS011;8595;52.542;11.974;2022-12-29T15:12:12;1.52;;;1.40;;
16957;SDS011;8595;52.542;11.974;2022-12-29T15:14:50;3.67;;;1.75;;
16957;SDS011;8595;52.542;11.974;2022-12-29T15:17:25;2.45;;;1.50;;
16957;SDS011;8595;52.542;11.974;2022-12-29T15:19:53;3.67;;;2.03;;
16957;SDS011;8595;52.542;11.974;2022-12-29T15:22:20;3.00;;;2.05;;
16957;SDS011;8595;52.542;11.974;2022-12-29T15:24:48;3.28;;;2.03;;
16957;SDS011;8595;52.542;11.974;2022-12-29T15:27:19;3.13;;;1.77;;
16957;SDS011;8595;52.542;11.974;2022-12-29T15:29:47;2.92;;;1.52;;
16957;SDS011;8595;52.542;11.974;2022-12-29T15:32:20;5.03;;;2.13;;
16957;SDS011;8595;52.542;11.974;2022-12-29T15:34:48;4.65;;;2.08;;